Time;durP1;ratioP1;P1;durP2;ratioP2;P2;SDS_P1;SDS_P2;PMS_P1;PMS_P2;Temp;Humidity;BMP_temperature;BMP_pressure;BME280_temperature;BME280_humidity;BME280_pressure;Samples;Min_cycle;Max_cycle;Signal;HPM_P1;HPM_P2
2022/03/25 00:00:44;;;;;;;9.53;6.23;;;;;;;13.13;31.03;94997.69;5093671;28;20190;-76
2022/03/25 00:03:12;;;;;;;8.70;6.43;;;;;;;13.11;31.10;94989.31;5092965;28;20648;-80
2022/03/25 00:05:40;;;;;;;14.43;7.27;;;;;;;13.07;31.25;94989.59;5092854;28;20671;-74
2022/03/25 00:08:08;;;;;;;8.33;6.37;;;;;;;13.09;31.18;94989.47;5092011;28;20217;-78
2022/03/25 00:10:35;;;;;;;9.73;5.83;;;;;;;13.06;31.03;94987.19;5093274;28;20192;-79
2022/03/25 00:13:02;;;;;;;10.87;5.90;;;;;;;13.06;31.25;94984.63;5093778;28;20552;-78
2022/03/25 00:15:28;;;;;;;9.47;6.30;;;;;;;13.04;31.23;94976.28;5093261;28;20190;-78
2022/03/25 00:17:55;;;;;;;6.97;6.27;;;;;;;13.00;31.24;94975.75;5092763;28;20186;-77
2022/03/25 00:20:22;;;;;;;13.10;7.03;;;;;;;13.02;31.32;94973.03;5092652;28;20200;-76
2022/03/25 00:22:51;;;;;;;9.17;6.27;;;;;;;13.00;31.16;94967.25;5093100;28;20237;-77
2022/03/25 00:25:18;;;;;;;8.17;6.10;;;;;;;13.00;31.24;94972.38;5092481;28;20225;-77
2022/03/25 00:27:45;;;;;;;7.73;6.03;;;;;;;12.99;31.42;94961.28;5093256;28;20181;-76
2022/03/25 00:30:12;;;;;;;12.90;6.37;;;;;;;12.98;31.24;94964.00;5091927;28;20193;-78
2022/03/25 00:32:40;;;;;;;10.83;6.20;;;;;;;12.97;31.21;94958.06;5090580;28;20193;-78
2022/03/25 00:35:08;;;;;;;7.70;6.20;;;;;;;12.97;31.22;94959.84;5092250;28;20862;-75
2022/03/25 00:37:35;;;;;;;8.27;5.57;;;;;;;12.95;31.25;94961.72;5092602;28;20193;-78
2022/03/25 00:40:03;;;;;;;6.83;5.47;;;;;;;12.94;31.15;94958.34;5092437;28;20213;-77
2022/03/25 00:42:30;;;;;;;7.77;6.13;;;;;;;12.88;31.31;94943.53;5092612;28;20668;-76
2022/03/25 00:44:57;;;;;;;9.93;6.20;;;;;;;12.80;31.36;94938.31;5092196;28;20204;-77
2022/03/25 00:47:25;;;;;;;9.83;6.00;;;;;;;12.93;31.39;94951.59;5092285;28;20675;-76
2022/03/25 00:49:52;;;;;;;8.13;6.10;;;;;;;12.93;31.08;94950.81;5092469;28;20213;-79
2022/03/25 00:52:18;;;;;;;10.00;6.13;;;;;;;12.94;31.23;94952.41;5092311;28;20281;-77
2022/03/25 00:54:45;;;;;;;9.17;5.80;;;;;;;12.92;31.43;94944.06;5092383;28;20653;-77
2022/03/25 00:57:13;;;;;;;8.40;6.03;;;;;;;12.91;31.43;94939.84;5090003;28;20181;-77
2022/03/25 00:59:40;;;;;;;10.07;5.77;;;;;;;12.89;31.45;94929.75;5092372;28;20213;-76
2022/03/25 01:02:07;;;;;;;7.67;5.63;;;;;;;12.85;31.40;94931.00;5091765;28;20280;-78
2022/03/25 01:04:34;;;;;;;9.27;6.33;;;;;;;12.81;31.42;94932.22;5092256;28;20189;-78
2022/03/25 01:07:01;;;;;;;7.47;5.50;;;;;;;12.84;31.50;94936.28;5091505;28;20198;-77
2022/03/25 01:09:28;;;;;;;9.27;5.83;;;;;;;12.84;31.44;94937.09;5091847;28;20186;-77
2022/03/25 01:11:55;;;;;;;10.40;5.97;;;;;;;12.84;31.50;94933.72;5091625;28;20612;-76
2022/03/25 01:14:24;;;;;;;8.23;5.40;;;;;;;12.84;31.41;94934.50;5091609;28;20194;-80
2022/03/25 01:16:50;;;;;;;8.17;5.70;;;;;;;12.82;31.51;94933.84;5091512;28;20194;-79
2022/03/25 01:19:17;;;;;;;8.43;5.57;;;;;;;12.81;31.49;94933.03;5091821;28;20221;-76
2022/03/25 01:21:44;;;;;;;9.63;5.83;;;;;;;12.81;31.48;94930.47;5091803;28;20189;-77
2022/03/25 01:24:11;;;;;;;6.77;5.23;;;;;;;12.80;31.55;94933.19;5091615;28;20224;-80
2022/03/25 01:26:39;;;;;;;6.27;5.40;;;;;;;12.76;31.37;94926.72;5091261;28;20194;-78
2022/03/25 01:29:06;;;;;;;12.33;5.87;;;;;;;12.80;31.50;94926.28;5091971;28;20186;-78
2022/03/25 01:31:34;;;;;;;7.63;5.47;;;;;;;12.80;31.58;94930.63;5091593;28;20185;-76
2022/03/25 01:34:02;;;;;;;10.27;5.70;;;;;;;12.79;31.47;94926.44;5091267;28;20657;-76
2022/03/25 01:36:30;;;;;;;7.43;5.57;;;;;;;12.79;31.36;94932.38;5091495;28;20201;-78
2022/03/25 01:38:56;;;;;;;7.60;5.60;;;;;;;12.75;31.42;94930.25;5091454;28;20219;-76
2022/03/25 01:41:23;;;;;;;8.63;5.30;;;;;;;12.78;31.58;94935.91;5090405;28;20194;-77
2022/03/25 01:43:54;;;;;;;9.17;5.20;;;;;;;12.78;31.71;94940.25;5091283;28;20204;-79
2022/03/25 01:46:21;;;;;;;8.77;6.03;;;;;;;12.76;31.46;94932.66;5091012;28;20197;-79
2022/03/25 01:48:50;;;;;;;10.03;5.57;;;;;;;12.75;31.75;94943.91;5091006;28;20217;-77
2022/03/25 01:51:19;;;;;;;7.40;5.93;;;;;;;12.74;31.60;94952.56;5091095;28;20216;-80
2022/03/25 01:53:47;;;;;;;9.70;5.30;;;;;;;12.72;31.70;94948.50;5091049;28;20193;-77
2022/03/25 01:56:21;;;;;;;7.40;5.23;;;;;;;12.66;31.74;94946.53;5091162;28;20181;-77
2022/03/25 01:58:48;;;;;;;5.53;4.97;;;;;;;12.66;31.70;94955.03;5090481;28;20221;-78
2022/03/25 02:01:15;;;;;;;12.97;6.30;;;;;;;12.64;31.70;94951.78;5091404;28;20204;-78
2022/03/25 02:03:43;;;;;;;7.63;5.13;;;;;;;12.64;31.67;94950.97;5092726;28;20221;-79
2022/03/25 02:06:11;;;;;;;7.13;5.27;;;;;;;12.61;31.56;94946.97;5093054;28;20255;-79
2022/03/25 02:08:38;;;;;;;8.53;5.93;;;;;;;12.59;31.59;94943.72;5090696;28;20251;-77
2022/03/25 02:11:08;;;;;;;9.93;5.53;;;;;;;12.59;31.82;94937.78;5090781;28;20186;-79
2022/03/25 02:13:34;;;;;;;8.60;5.63;;;;;;;12.57;31.68;94940.50;5090510;28;20273;-79
2022/03/25 02:16:01;;;;;;;7.00;5.40;;;;;;;12.57;31.71;94942.25;5090615;28;20192;-77
2022/03/25 02:18:28;;;;;;;8.20;5.67;;;;;;;12.54;31.60;94939.00;5090449;28;20198;-76
2022/03/25 02:20:55;;;;;;;7.43;5.50;;;;;;;12.55;31.63;94940.63;5090760;28;20232;-76
2022/03/25 02:23:23;;;;;;;8.83;5.53;;;;;;;12.52;31.81;94935.78;5090139;28;20236;-78
2022/03/25 02:25:53;;;;;;;8.17;5.40;;;;;;;12.51;31.68;94933.34;5090662;28;20197;-74
2022/03/25 02:28:22;;;;;;;7.27;5.47;;;;;;;12.46;31.65;94928.66;5090528;28;20197;-75
2022/03/25 02:30:49;;;;;;;5.93;5.37;;;;;;;12.41;31.68;94925.72;5090289;28;20804;-74
2022/03/25 02:33:16;;;;;;;11.83;6.13;;;;;;;12.42;31.82;94923.97;5090487;28;20190;-78
2022/03/25 02:35:44;;;;;;;8.47;5.53;;;;;;;12.42;31.86;94921.41;5090428;28;20205;-78
2022/03/25 02:38:13;;;;;;;7.17;5.40;;;;;;;12.39;31.95;94921.66;5090316;28;20545;-78
2022/03/25 02:40:43;;;;;;;9.30;6.07;;;;;;;12.35;32.00;94921.19;5089839;28;20698;-77
2022/03/25 02:43:12;;;;;;;8.97;5.90;;;;;;;12.31;31.98;94919.84;5090103;28;20208;-77
2022/03/25 02:45:39;;;;;;;8.47;5.20;;;;;;;12.29;32.14;94921.72;5090029;28;20247;-76
2022/03/25 02:48:07;;;;;;;9.70;6.03;;;;;;;12.27;32.17;94928.78;5090088;28;20704;-77
2022/03/25 02:50:34;;;;;;;7.47;5.83;;;;;;;12.24;32.19;94918.78;5089824;28;20186;-78
2022/03/25 02:53:02;;;;;;;9.73;5.67;;;;;;;12.23;32.32;94922.31;5089927;28;20194;-76
2022/03/25 02:55:29;;;;;;;7.30;5.37;;;;;;;12.20;32.27;94920.03;5089740;28;20190;-75
2022/03/25 02:57:58;;;;;;;9.33;5.97;;;;;;;12.13;32.69;94911.28;5090014;28;20182;-77
2022/03/25 03:00:26;;;;;;;10.30;5.47;;;;;;;12.09;32.54;94908.22;5089803;28;20217;-78
2022/03/25 03:02:54;;;;;;;6.93;5.47;;;;;;;12.12;32.38;94920.72;5089863;28;20668;-77
2022/03/25 03:05:21;;;;;;;7.67;5.83;;;;;;;12.11;32.39;94921.69;5089617;28;20196;-74
2022/03/25 03:07:48;;;;;;;6.30;5.30;;;;;;;12.10;32.40;94920.06;5089606;28;20243;-79
2022/03/25 03:10:16;;;;;;;10.83;5.47;;;;;;;12.08;32.44;94919.38;5089648;28;20182;-76
2022/03/25 03:12:42;;;;;;;8.40;5.77;;;;;;;12.08;32.55;94916.81;5090001;28;20556;-76
2022/03/25 03:15:13;;;;;;;7.37;5.53;;;;;;;12.08;32.33;94921.16;5089715;28;20593;-77
2022/03/25 03:17:40;;;;;;;12.73;5.90;;;;;;;12.08;32.43;94924.50;5089532;28;20196;-78
2022/03/25 03:20:08;;;;;;;7.63;5.53;;;;;;;12.05;32.51;94923.06;5089961;28;20213;-78
2022/03/25 03:22:35;;;;;;;15.53;6.17;;;;;;;12.04;32.59;94926.53;5089124;28;20194;-78
2022/03/25 03:25:02;;;;;;;11.43;6.40;;;;;;;12.00;32.61;94924.41;5089966;28;20664;-78
2022/03/25 03:27:29;;;;;;;6.43;5.73;;;;;;;12.01;32.47;94939.66;5089705;28;20724;-77
2022/03/25 03:29:57;;;;;;;7.03;5.27;;;;;;;12.00;32.56;94934.66;5089977;28;20190;-76
2022/03/25 03:32:26;;;;;;;8.73;5.97;;;;;;;11.99;32.49;94933.06;5089389;28;20198;-76
2022/03/25 03:34:54;;;;;;;11.93;6.33;;;;;;;11.98;32.49;94928.88;5089716;28;20280;-79
2022/03/25 03:37:21;;;;;;;8.17;5.80;;;;;;;11.94;32.66;94933.47;5089744;28;20352;-77
2022/03/25 03:39:48;;;;;;;10.17;6.07;;;;;;;11.88;32.82;94928.91;5089872;28;20213;-78
2022/03/25 03:42:15;;;;;;;9.40;6.30;;;;;;;11.92;32.73;94937.94;5089359;28;20198;-78
2022/03/25 03:44:42;;;;;;;8.83;6.80;;;;;;;11.89;32.66;94935.66;5089888;28;20190;-78
2022/03/25 03:47:10;;;;;;;8.90;6.03;;;;;;;11.90;32.81;94932.13;5089560;28;20190;-76
2022/03/25 03:49:39;;;;;;;12.30;6.43;;;;;;;11.87;32.86;94934.16;5090072;28;20186;-78
2022/03/25 03:52:08;;;;;;;11.93;6.17;;;;;;;11.77;32.98;94919.59;5089352;28;20657;-77
2022/03/25 03:54:37;;;;;;;9.73;6.17;;;;;;;11.84;32.69;94924.22;5089343;28;20193;-78
2022/03/25 03:57:04;;;;;;;8.40;6.00;;;;;;;11.78;32.91;94931.44;5089671;28;20636;-78
2022/03/25 03:59:31;;;;;;;16.93;6.40;;;;;;;11.75;32.87;94929.19;5088899;28;20296;-77
2022/03/25 04:01:57;;;;;;;11.80;6.60;;;;;;;11.74;33.04;94930.16;5089535;28;20251;-79
2022/03/25 04:04:24;;;;;;;10.77;6.27;;;;;;;11.72;32.93;94937.16;5090438;28;20209;-78
2022/03/25 04:06:52;;;;;;;8.70;6.27;;;;;;;11.69;33.23;94928.94;5093210;28;20300;-79
2022/03/25 04:09:19;;;;;;;11.40;6.27;;;;;;;11.69;33.04;94928.94;5092872;28;20308;-78
2022/03/25 04:11:46;;;;;;;11.73;6.17;;;;;;;11.69;33.11;94931.47;5093214;28;20189;-79
2022/03/25 04:14:13;;;;;;;11.80;6.30;;;;;;;11.68;32.95;94938.38;5092753;28;20201;-80
2022/03/25 04:16:40;;;;;;;7.63;5.67;;;;;;;11.68;33.03;94933.25;5093141;28;20285;-77
2022/03/25 04:19:07;;;;;;;6.73;5.43;;;;;;;11.68;32.88;94938.38;5092826;28;20683;-75
2022/03/25 04:21:34;;;;;;;8.97;5.63;;;;;;;11.68;32.95;94935.00;5092602;28;20228;-79
2022/03/25 04:24:02;;;;;;;10.83;6.40;;;;;;;11.66;33.06;94935.16;5092521;28;20233;-79
2022/03/25 04:26:29;;;;;;;9.80;6.73;;;;;;;11.67;32.86;94935.94;5092633;28;20190;-79
2022/03/25 04:28:56;;;;;;;7.60;6.27;;;;;;;11.66;33.20;94937.72;5092975;28;20656;-78
2022/03/25 04:31:23;;;;;;;12.30;6.40;;;;;;;11.65;33.14;94941.19;5092628;28;20200;-81
2022/03/25 04:33:50;;;;;;;10.67;6.30;;;;;;;11.68;33.18;94943.50;5092866;28;20186;-80
2022/03/25 04:36:16;;;;;;;7.30;6.00;;;;;;;11.70;33.03;94938.22;5092719;28;20193;-77
2022/03/25 04:38:43;;;;;;;9.43;5.90;;;;;;;11.71;33.08;94937.28;5092799;28;20699;-80
2022/03/25 04:41:12;;;;;;;12.63;6.03;;;;;;;11.73;33.13;94943.06;5092366;28;20243;-76
2022/03/25 04:43:39;;;;;;;11.07;6.33;;;;;;;11.73;33.13;94935.38;5092603;28;20273;-75
2022/03/25 04:46:08;;;;;;;10.27;6.10;;;;;;;11.79;32.97;94952.78;5092425;28;20276;-79
2022/03/25 04:48:36;;;;;;;10.57;6.50;;;;;;;11.83;33.20;94946.47;5092351;28;20259;-77
2022/03/25 04:51:04;;;;;;;8.37;6.27;;;;;;;11.88;33.18;94949.41;5092196;28;20231;-76
2022/03/25 04:53:31;;;;;;;13.13;6.97;;;;;;;11.91;33.04;94949.13;5092163;28;20248;-77
2022/03/25 04:55:58;;;;;;;11.03;6.63;;;;;;;11.98;33.16;94957.88;5092006;28;20194;-79
2022/03/25 04:58:26;;;;;;;8.33;6.37;;;;;;;12.05;32.88;94953.81;5092554;28;20189;-77
2022/03/25 05:00:53;;;;;;;12.97;6.73;;;;;;;12.15;32.59;94955.53;5092226;28;20213;-76
2022/03/25 05:03:20;;;;;;;12.63;7.33;;;;;;;12.27;32.90;94957.78;5091930;28;20197;-76
2022/03/25 05:05:47;;;;;;;10.00;7.00;;;;;;;12.40;32.66;94949.75;5092032;28;20274;-79
2022/03/25 05:08:15;;;;;;;9.87;6.77;;;;;;;12.58;32.44;94952.38;5091843;28;20193;-78
2022/03/25 05:10:42;;;;;;;9.87;6.10;;;;;;;12.86;32.47;94953.13;5092277;28;20266;-78
2022/03/25 05:13:09;;;;;;;11.33;7.07;;;;;;;13.20;32.55;94957.63;5092031;28;20564;-78
2022/03/25 05:15:37;;;;;;;7.53;6.03;;;;;;;13.58;32.76;94951.38;5090676;28;20598;-77
2022/03/25 05:18:04;;;;;;;11.67;6.60;;;;;;;14.08;32.17;94958.47;5091627;28;20193;-75
2022/03/25 05:20:31;;;;;;;11.97;7.10;;;;;;;14.61;31.94;94954.06;5092171;28;20218;-78
2022/03/25 05:22:58;;;;;;;12.03;6.17;;;;;;;15.20;31.81;94957.44;5091324;28;20221;-77
2022/03/25 05:25:24;;;;;;;12.30;6.83;;;;;;;15.80;31.50;94962.25;5091882;28;20190;-77
2022/03/25 05:27:54;;;;;;;7.73;6.30;;;;;;;16.45;31.13;94958.72;5091475;28;20181;-75
2022/03/25 05:30:23;;;;;;;9.13;6.67;;;;;;;17.12;30.51;94959.09;5091727;28;20193;-77
2022/03/25 05:32:51;;;;;;;10.63;5.87;;;;;;;17.82;30.11;94952.91;5091259;28;20186;-77
2022/03/25 05:35:19;;;;;;;10.60;6.43;;;;;;;18.53;29.45;94958.50;5091481;28;20221;-79
2022/03/25 05:37:46;;;;;;;10.00;6.57;;;;;;;19.24;28.81;94962.13;5091267;28;20201;-79
2022/03/25 05:40:13;;;;;;;10.20;6.00;;;;;;;19.95;28.27;94961.38;5091446;28;20225;-76
2022/03/25 05:42:41;;;;;;;9.87;6.57;;;;;;;20.63;27.55;94949.41;5091255;28;20268;-79
2022/03/25 05:45:09;;;;;;;8.80;6.87;;;;;;;21.33;26.93;94949.22;5091466;28;20194;-76
2022/03/25 05:47:37;;;;;;;8.33;6.53;;;;;;;22.04;26.33;94949.47;5090727;28;20188;-78
2022/03/25 05:50:09;;;;;;;17.70;9.40;;;;;;;22.75;25.74;94943.50;5091396;28;20182;-82
2022/03/25 05:52:36;;;;;;;23.03;12.67;;;;;;;23.48;25.11;94967.41;5091429;28;20209;-76
2022/03/25 05:55:04;;;;;;;19.80;10.82;;;;;;;24.11;24.63;94956.13;5091134;28;20697;-79
2022/03/25 05:57:31;;;;;;;24.92;11.18;;;;;;;24.78;24.09;94964.91;5091174;28;20303;-78
2022/03/25 05:59:59;;;;;;;15.00;9.05;;;;;;;25.42;23.48;94973.16;5090591;28;20194;-78
2022/03/25 06:02:26;;;;;;;9.55;7.60;;;;;;;26.00;23.07;94972.53;5091062;28;20213;-81
2022/03/25 06:04:53;;;;;;;14.90;7.80;;;;;;;26.62;22.43;94968.66;5090918;28;20212;-81
2022/03/25 06:07:22;;;;;;;5.28;2.90;;;;;;;27.17;23.40;94971.63;5090914;28;20193;-76
2022/03/25 06:09:49;;;;;;;5.82;3.10;;;;;;;27.49;27.54;94971.94;5090753;28;20189;-77
2022/03/25 06:12:16;;;;;;;4.05;3.75;;;;;;;27.73;28.33;94982.38;5091302;28;20186;-82
2022/03/25 06:14:42;;;;;;;4.50;3.85;;;;;;;27.90;28.53;94977.13;5090688;28;20193;-77
2022/03/25 06:17:09;;;;;;;7.60;4.75;;;;;;;28.05;28.13;94985.22;5090893;28;20197;-75
2022/03/25 06:19:36;;;;;;;7.47;4.00;;;;;;;28.22;27.27;94978.13;5090479;28;20181;-78
2022/03/25 06:22:03;;;;;;;6.07;4.63;;;;;;;28.40;27.11;94986.81;5090906;28;20221;-75
2022/03/25 06:24:32;;;;;;;5.93;5.10;;;;;;;28.54;26.64;94984.63;5090139;28;20232;-79
2022/03/25 06:26:59;;;;;;;5.32;4.07;;;;;;;28.55;26.09;94962.56;5090405;28;20186;-79
2022/03/25 06:29:26;;;;;;;5.85;5.13;;;;;;;28.79;26.10;94997.34;5090289;28;20526;-78
2022/03/25 06:31:53;;;;;;;6.15;5.38;;;;;;;28.94;25.93;94997.53;5089037;28;20251;-76
2022/03/25 06:34:23;;;;;;;5.97;4.82;;;;;;;29.06;25.27;94979.81;5090764;28;20186;-82
2022/03/25 06:36:50;;;;;;;9.77;5.22;;;;;;;29.15;24.73;94988.88;5091673;28;20197;-86
2022/03/25 06:39:17;;;;;;;6.28;5.60;;;;;;;29.34;24.43;94999.06;5094233;28;20197;-85
2022/03/25 06:41:45;;;;;;;9.77;6.97;;;;;;;29.47;24.33;94999.47;5090457;28;20229;-79
2022/03/25 06:44:12;;;;;;;10.15;6.53;;;;;;;29.61;24.59;94994.63;5090411;28;20285;-80
2022/03/25 06:46:39;;;;;;;13.20;6.25;;;;;;;29.76;23.79;94993.19;5087954;28;20205;-79
2022/03/25 06:49:07;;;;;;;13.63;6.53;;;;;;;29.82;22.11;95000.88;5087861;28;20641;-77
2022/03/25 06:51:34;;;;;;;10.02;5.70;;;;;;;29.90;22.87;94995.16;5087257;28;20562;-78
2022/03/25 06:54:02;;;;;;;10.32;6.35;;;;;;;30.00;23.36;95007.63;5087441;28;20220;-77
2022/03/25 06:56:29;;;;;;;11.00;6.32;;;;;;;30.09;23.27;95005.31;5087159;28;20689;-77
2022/03/25 06:58:58;;;;;;;9.80;6.07;;;;;;;30.23;23.36;95007.31;5087447;28;20193;-79
2022/03/25 07:01:26;;;;;;;7.20;5.85;;;;;;;30.31;23.30;95005.25;5087050;28;20217;-75
2022/03/25 07:03:53;;;;;;;8.65;6.35;;;;;;;30.39;23.52;95010.06;5087373;28;20269;-75
2022/03/25 07:06:24;;;;;;;9.60;7.32;;;;;;;30.45;22.81;95007.19;5087411;28;20186;-73
2022/03/25 07:08:55;;;;;;;11.10;6.93;;;;;;;30.53;22.50;95008.56;5087361;28;20197;-78
2022/03/25 07:11:22;;;;;;;8.90;7.20;;;;;;;30.61;22.38;95007.28;5087277;28;20213;-74
2022/03/25 07:13:50;;;;;;;13.60;6.68;;;;;;;30.64;22.09;95012.06;5087207;28;20680;-76
2022/03/25 07:16:19;;;;;;;10.10;7.00;;;;;;;30.71;22.68;95017.91;5087256;28;20188;-74
2022/03/25 07:18:46;;;;;;;8.40;6.85;;;;;;;30.75;22.67;95005.03;5087213;28;20193;-76
2022/03/25 07:21:13;;;;;;;8.82;6.30;;;;;;;30.83;22.70;94999.22;5087185;28;20213;-77
2022/03/25 07:23:40;;;;;;;12.93;6.82;;;;;;;30.90;22.90;95005.09;5086930;28;20281;-78
2022/03/25 07:26:07;;;;;;;12.98;6.47;;;;;;;30.95;22.73;95002.47;5087145;28;20201;-74
2022/03/25 07:28:35;;;;;;;11.80;6.78;;;;;;;31.00;22.40;95015.69;5086963;28;20200;-74
2022/03/25 07:31:04;;;;;;;9.25;6.35;;;;;;;31.07;22.50;95008.31;5087680;28;20258;-76
2022/03/25 07:33:33;;;;;;;8.68;6.72;;;;;;;31.35;22.08;95011.63;5087063;28;20225;-76
2022/03/25 07:36:00;;;;;;;11.57;7.05;;;;;;;31.71;21.11;95015.16;5087663;28;20196;-74
2022/03/25 07:38:27;;;;;;;10.32;6.85;;;;;;;32.11;20.24;95017.03;5087120;28;20189;-79
2022/03/25 07:40:54;;;;;;;8.30;7.45;;;;;;;32.54;19.58;95014.13;5090465;28;20233;-76
2022/03/25 07:43:21;;;;;;;11.95;7.13;;;;;;;32.88;19.41;95015.09;5091080;28;20189;-75
2022/03/25 07:45:48;;;;;;;10.93;7.70;;;;;;;33.28;18.61;95021.31;5091247;28;20205;-78
2022/03/25 07:48:15;;;;;;;12.27;7.90;;;;;;;33.63;18.44;95022.22;5091567;28;20185;-74
2022/03/25 07:50:43;;;;;;;12.65;7.75;;;;;;;33.94;18.03;95018.31;5091629;28;20241;-75
2022/03/25 07:53:10;;;;;;;11.73;7.22;;;;;;;34.20;17.68;95018.16;5090215;28;20677;-73
2022/03/25 07:55:37;;;;;;;10.50;7.28;;;;;;;34.38;17.35;95033.38;5094115;28;20189;-75
2022/03/25 07:58:04;;;;;;;10.23;7.88;;;;;;;34.53;17.22;95031.69;5093354;28;20194;-76
2022/03/25 08:00:31;;;;;;;8.43;6.88;;;;;;;34.74;16.65;95021.66;5093261;28;20190;-74
2022/03/25 08:02:58;;;;;;;9.70;7.88;;;;;;;34.87;16.95;95026.28;5093356;28;20568;-76
2022/03/25 08:05:25;;;;;;;10.77;7.45;;;;;;;34.99;16.37;95032.03;5093083;28;20205;-77
2022/03/25 08:07:54;;;;;;;13.30;7.85;;;;;;;35.09;16.32;95023.13;5093270;28;20188;-75
2022/03/25 08:10:23;;;;;;;9.80;7.60;;;;;;;35.14;16.36;95031.06;5092898;28;20194;-76
2022/03/25 08:12:50;;;;;;;12.43;6.35;;;;;;;35.16;16.18;95019.06;5093314;28;20198;-75
2022/03/25 08:15:18;;;;;;;11.68;6.75;;;;;;;35.19;16.33;95021.16;5093051;28;20255;-74
2022/03/25 08:17:50;;;;;;;10.63;7.05;;;;;;;35.19;16.03;95017.69;5092275;28;20251;-75
2022/03/25 08:20:21;;;;;;;13.05;7.82;;;;;;;35.14;16.24;95015.09;5093102;28;20614;-74
2022/03/25 08:22:48;;;;;;;8.77;7.20;;;;;;;35.07;16.11;95031.41;5092711;28;20233;-76
2022/03/25 08:28:01;;;;;;;10.27;7.60;;;;;;;34.89;16.24;95030.25;5092867;28;20710;-76
2022/03/25 08:30:29;;;;;;;16.27;7.22;;;;;;;34.81;15.84;95033.53;5092656;28;20196;-77
2022/03/25 08:32:56;;;;;;;16.92;7.45;;;;;;;34.67;16.10;95037.91;5092895;28;20219;-75
2022/03/25 08:35:24;;;;;;;17.50;7.90;;;;;;;34.49;16.04;95025.34;5092499;28;20186;-75
2022/03/25 08:37:50;;;;;;;17.73;8.45;;;;;;;34.34;16.23;95026.25;5092625;28;20250;-76
2022/03/25 08:40:19;;;;;;;12.55;7.93;;;;;;;34.18;16.02;95021.06;5092654;28;20189;-75
2022/03/25 08:42:45;;;;;;;16.85;8.75;;;;;;;34.03;16.16;95031.03;5091808;28;20226;-75
2022/03/25 08:45:13;;;;;;;15.98;8.32;;;;;;;33.83;16.31;95013.34;5091465;28;20190;-75
2022/03/25 08:47:40;;;;;;;18.85;7.95;;;;;;;33.63;16.35;95011.63;5092783;28;20182;-74
2022/03/25 08:50:09;;;;;;;10.80;7.60;;;;;;;33.44;16.12;95016.78;5091930;28;20190;-76
2022/03/25 08:52:36;;;;;;;14.60;7.68;;;;;;;33.26;16.02;95012.88;5092430;28;20374;-76
2022/03/25 08:55:04;;;;;;;14.30;7.15;;;;;;;33.11;16.10;95010.25;5092857;28;20247;-74
2022/03/25 08:57:33;;;;;;;14.95;7.80;;;;;;;32.92;16.42;95010.88;5092468;28;20760;-77
2022/03/25 09:00:00;;;;;;;14.07;7.90;;;;;;;32.74;16.52;95002.69;5092321;28;20649;-75
2022/03/25 09:02:26;;;;;;;16.15;8.30;;;;;;;32.55;16.51;95010.41;5092076;28;20229;-77
2022/03/25 09:04:53;;;;;;;11.23;8.35;;;;;;;32.36;16.70;95010.16;5092225;28;20194;-75
2022/03/25 09:07:20;;;;;;;11.30;7.85;;;;;;;32.17;16.63;95008.06;5091867;28;20213;-76
2022/03/25 09:09:47;;;;;;;9.82;8.00;;;;;;;31.83;16.50;94972.56;5090604;28;20190;-74
2022/03/25 09:12:14;;;;;;;10.63;7.40;;;;;;;31.83;16.97;94997.22;5091737;28;20696;-78
2022/03/25 09:14:42;;;;;;;10.38;7.63;;;;;;;31.67;16.70;94998.22;5092008;28;20571;-75
2022/03/25 09:17:09;;;;;;;12.98;7.82;;;;;;;31.50;17.13;95001.09;5091764;28;20190;-77
2022/03/25 09:19:36;;;;;;;9.20;7.35;;;;;;;31.34;17.03;94988.88;5092104;28;20192;-75
2022/03/25 09:22:03;;;;;;;10.18;7.35;;;;;;;31.16;17.18;94987.47;5091336;28;20225;-76
2022/03/25 09:24:30;;;;;;;13.52;7.80;;;;;;;30.96;17.04;94978.44;5091664;28;20221;-77
2022/03/25 09:26:57;;;;;;;11.15;7.55;;;;;;;30.77;17.14;94987.06;5091670;28;20216;-76
2022/03/25 09:29:25;;;;;;;11.40;8.25;;;;;;;30.59;17.34;94988.28;5092006;28;20186;-74
2022/03/25 09:31:53;;;;;;;10.98;6.90;;;;;;;30.36;17.02;94990.25;5091882;28;20178;-75
2022/03/25 09:37:05;;;;;;;18.90;7.38;;;;;;;29.91;17.33;94982.75;5091357;28;20182;-76
2022/03/25 09:39:31;;;;;;;12.65;7.35;;;;;;;29.69;17.78;94983.63;5091949;28;20194;-76
2022/03/25 09:42:00;;;;;;;17.50;7.82;;;;;;;29.48;17.23;94969.44;5091453;28;20217;-77
2022/03/25 09:44:27;;;;;;;9.57;7.25;;;;;;;29.28;17.62;94981.63;5091437;28;20190;-75
2022/03/25 09:46:55;;;;;;;12.95;7.40;;;;;;;29.07;17.75;94984.03;5091467;28;20197;-76
2022/03/25 09:49:22;;;;;;;12.48;7.25;;;;;;;28.88;17.95;94980.06;5091432;28;20200;-75
2022/03/25 09:51:49;;;;;;;20.70;7.28;;;;;;;28.65;17.95;94966.13;5091295;28;20630;-78
2022/03/25 09:54:17;;;;;;;19.80;7.45;;;;;;;28.39;17.55;94972.06;5091329;28;20212;-79
2022/03/25 09:56:44;;;;;;;12.48;6.80;;;;;;;28.15;17.94;94972.25;5091168;28;20186;-77
2022/03/25 09:59:16;;;;;;;12.95;7.32;;;;;;;27.89;18.03;94963.19;5088934;28;20575;-76
2022/03/25 10:01:43;;;;;;;11.13;7.55;;;;;;;27.67;17.95;94964.88;5090376;28;20260;-75
2022/03/25 10:04:41;;;;;;;14.93;7.20;;;;;;;27.44;17.99;94956.09;5090627;28;20201;-77
2022/03/25 10:07:18;;;;;;;15.15;6.97;;;;;;;27.21;17.88;94967.50;5090848;28;20193;-77
2022/03/25 10:09:46;;;;;;;9.23;6.53;;;;;;;27.01;18.23;94957.38;5091189;28;20177;-76
2022/03/25 10:12:24;;;;;;;10.80;6.63;;;;;;;26.83;17.97;94960.19;5090805;28;20189;-75
2022/03/25 10:14:52;;;;;;;13.23;7.32;;;;;;;26.66;18.10;94960.09;5091235;28;20190;-76
2022/03/25 10:17:19;;;;;;;8.20;5.90;;;;;;;26.51;18.35;94957.97;5090772;28;20193;-75
2022/03/25 10:19:52;;;;;;;13.20;6.35;;;;;;;26.39;18.49;94962.38;5090896;28;20614;-78
2022/03/25 10:22:20;;;;;;;10.18;6.57;;;;;;;26.21;18.57;94952.03;5090180;28;20253;-77
2022/03/25 10:24:49;;;;;;;11.82;6.53;;;;;;;26.11;18.27;94957.03;5088994;28;20197;-76
2022/03/25 10:27:22;;;;;;;9.85;5.95;;;;;;;25.96;18.33;94953.03;5090406;28;20239;-76
2022/03/25 10:29:50;;;;;;;9.93;6.13;;;;;;;25.87;18.52;94961.47;5090631;28;20186;-76
2022/03/25 10:32:19;;;;;;;9.75;5.57;;;;;;;25.73;18.68;94950.34;5090360;28;20270;-75
2022/03/25 10:35:02;;;;;;;9.95;6.38;;;;;;;25.65;18.55;94950.69;5090576;28;20189;-77
2022/03/25 10:37:29;;;;;;;10.23;5.72;;;;;;;25.55;18.75;94951.22;5090295;28;20194;-75
2022/03/25 10:39:56;;;;;;;8.80;5.50;;;;;;;25.44;18.81;94944.16;5090349;28;20196;-75
2022/03/25 10:42:26;;;;;;;7.15;6.25;;;;;;;25.33;18.58;94950.94;5090453;28;20221;-77
2022/03/25 10:44:53;;;;;;;9.18;5.85;;;;;;;25.28;18.90;94950.81;5090559;28;20178;-75
2022/03/25 10:47:23;;;;;;;12.07;6.07;;;;;;;25.19;18.75;94945.09;5090048;28;20185;-76
2022/03/25 10:49:50;;;;;;;11.90;5.93;;;;;;;25.11;18.66;94939.38;5090450;28;20190;-78
2022/03/25 10:52:30;;;;;;;11.70;6.38;;;;;;;25.02;18.69;94939.66;5090122;28;20208;-77
2022/03/25 10:55:19;;;;;;;9.75;5.30;;;;;;;24.92;18.85;94928.13;5090188;28;20189;-77
2022/03/25 10:57:51;;;;;;;8.90;5.80;;;;;;;24.85;18.89;94927.41;5089902;28;20190;-75
2022/03/25 11:00:18;;;;;;;6.32;5.72;;;;;;;24.77;18.74;94944.19;5090269;28;20668;-77
2022/03/25 11:02:45;;;;;;;11.25;5.93;;;;;;;24.70;19.05;94943.50;5089971;28;20213;-75
2022/03/25 11:05:13;;;;;;;8.98;6.10;;;;;;;24.63;18.99;94927.84;5090449;28;20232;-77
2022/03/25 11:07:44;;;;;;;10.63;5.88;;;;;;;24.57;18.95;94936.59;5090125;28;20193;-74
2022/03/25 11:10:13;;;;;;;7.50;5.38;;;;;;;24.50;19.22;94926.19;5089732;28;20221;-74
2022/03/25 11:12:42;;;;;;;12.32;6.13;;;;;;;24.46;19.17;94924.22;5089562;28;20186;-75
2022/03/25 11:15:11;;;;;;;7.53;5.50;;;;;;;24.42;19.20;94923.06;5089689;28;20226;-75
2022/03/25 11:17:39;;;;;;;10.00;5.65;;;;;;;24.34;19.15;94912.88;5089573;28;20190;-78
2022/03/25 11:20:10;;;;;;;9.13;5.65;;;;;;;24.26;19.12;94917.34;5090032;28;20209;-76
2022/03/25 11:22:44;;;;;;;9.75;5.82;;;;;;;24.20;19.27;94915.63;5089028;28;20245;-75
2022/03/25 11:25:14;;;;;;;9.02;5.35;;;;;;;24.14;19.14;94913.09;5089416;28;20182;-75
2022/03/25 11:27:46;;;;;;;8.90;5.50;;;;;;;24.08;19.19;94908.72;5089591;28;20193;-75
2022/03/25 11:30:14;;;;;;;9.48;5.82;;;;;;;24.01;19.38;94901.75;5089579;28;20186;-74
2022/03/25 11:33:03;;;;;;;5.43;4.90;;;;;;;23.97;19.38;94910.25;5089424;28;20667;-76
2022/03/25 11:35:32;;;;;;;12.23;6.47;;;;;;;23.93;19.61;94914.28;5089575;28;20243;-77
2022/03/25 11:38:19;;;;;;;6.15;5.03;;;;;;;23.89;19.54;94919.16;5089291;28;20235;-76